sensor_id;sensor_type;location;lat;lon;timestamp;temperature;humidity
39045;DHT22;52192;52.002;5.956;2022-12-18T00:00:43;-0.90;77.60
39045;DHT22;52192;52.002;5.956;2022-12-18T00:03:10;-0.90;77.60
39045;DHT22;52192;52.002;5.956;2022-12-18T00:05:36;-1.00;77.60
39045;DHT22;52192;52.002;5.956;2022-12-18T00:08:02;-1.00;77.50
39045;DHT22;52192;52.002;5.956;2022-12-18T00:10:28;-1.00;77.40
39045;DHT22;52192;52.002;5.956;2022-12-18T00:12:54;-1.10;77.40
39045;DHT22;52192;52.002;5.956;2022-12-18T00:15:20;-1.10;77.40
39045;DHT22;52192;52.002;5.956;2022-12-18T00:17:45;-1.10;77.30
39045;DHT22;52192;52.002;5.956;2022-12-18T00:20:11;-1.20;77.20
39045;DHT22;52192;52.002;5.956;2022-12-18T00:22:37;-1.20;77.30
39045;DHT22;52192;52.002;5.956;2022-12-18T00:25:03;-1.20;77.20
39045;DHT22;52192;52.002;5.956;2022-12-18T00:27:28;-1.30;77.10
39045;DHT22;52192;52.002;5.956;2022-12-18T00:29:54;-1.30;77.10
39045;DHT22;52192;52.002;5.956;2022-12-18T00:32:20;-1.30;77.00
39045;DHT22;52192;52.002;5.956;2022-12-18T00:34:45;-1.30;77.00
39045;DHT22;52192;52.002;5.956;2022-12-18T00:37:11;-1.30;77.00
39045;DHT22;52192;52.002;5.956;2022-12-18T00:39:37;-1.40;76.90
39045;DHT22;52192;52.002;5.956;2022-12-18T00:42:02;-1.40;76.80
39045;DHT22;52192;52.002;5.956;2022-12-18T00:44:46;-1.40;76.70
39045;DHT22;52192;52.002;5.956;2022-12-18T00:47:12;-1.40;76.70
39045;DHT22;52192;52.002;5.956;2022-12-18T00:49:38;-1.40;76.80
39045;DHT22;52192;52.002;5.956;2022-12-18T00:52:03;-1.50;76.70
39045;DHT22;52192;52.002;5.956;2022-12-18T00:54:29;-1.50;76.60
39045;DHT22;52192;52.002;5.956;2022-12-18T00:56:55;-1.50;76.50
39045;DHT22;52192;52.002;5.956;2022-12-18T00:59:21;-1.50;76.50
39045;DHT22;52192;52.002;5.956;2022-12-18T01:01:47;-1.60;76.50
39045;DHT22;52192;52.002;5.956;2022-12-18T01:04:13;-1.60;76.50
39045;DHT22;52192;52.002;5.956;2022-12-18T01:06:38;-1.60;76.30
39045;DHT22;52192;52.002;5.956;2022-12-18T01:09:04;-1.60;76.30
39045;DHT22;52192;52.002;5.956;2022-12-18T01:11:30;-1.60;76.30
39045;DHT22;52192;52.002;5.956;2022-12-18T01:13:56;-1.70;76.10
39045;DHT22;52192;52.002;5.956;2022-12-18T01:16:22;-1.70;76.10
39045;DHT22;52192;52.002;5.956;2022-12-18T01:18:51;-1.70;76.10
39045;DHT22;52192;52.002;5.956;2022-12-18T01:21:17;-1.80;76.10
39045;DHT22;52192;52.002;5.956;2022-12-18T01:23:46;-1.80;76.10
39045;DHT22;52192;52.002;5.956;2022-12-18T01:26:14;-1.80;76.10
39045;DHT22;52192;52.002;5.956;2022-12-18T01:28:40;-1.80;76.00
39045;DHT22;52192;52.002;5.956;2022-12-18T01:31:15;-1.80;76.00
39045;DHT22;52192;52.002;5.956;2022-12-18T01:33:41;-1.90;75.90
39045;DHT22;52192;52.002;5.956;2022-12-18T01:36:07;-1.90;75.90
39045;DHT22;52192;52.002;5.956;2022-12-18T01:38:33;-1.90;75.80
39045;DHT22;52192;52.002;5.956;2022-12-18T01:41:00;-1.90;75.70
39045;DHT22;52192;52.002;5.956;2022-12-18T01:43:46;-1.90;75.80
39045;DHT22;52192;52.002;5.956;2022-12-18T01:46:13;-1.90;75.80
39045;DHT22;52192;52.002;5.956;2022-12-18T01:48:40;-2.00;75.70
39045;DHT22;52192;52.002;5.956;2022-12-18T01:51:08;-2.00;75.70
39045;DHT22;52192;52.002;5.956;2022-12-18T01:53:36;-2.00;75.60
39045;DHT22;52192;52.002;5.956;2022-12-18T01:56:03;-2.00;75.50
39045;DHT22;52192;52.002;5.956;2022-12-18T01:58:52;-2.00;75.50
39045;DHT22;52192;52.002;5.956;2022-12-18T02:01:21;-2.00;75.40
39045;DHT22;52192;52.002;5.956;2022-12-18T02:03:48;-2.00;75.40
39045;DHT22;52192;52.002;5.956;2022-12-18T02:06:17;-2.10;75.40
39045;DHT22;52192;52.002;5.956;2022-12-18T02:11:43;-2.10;75.40
39045;DHT22;52192;52.002;5.956;2022-12-18T02:14:37;-2.10;75.40
39045;DHT22;52192;52.002;5.956;2022-12-18T02:17:12;-2.20;75.40
39045;DHT22;52192;52.002;5.956;2022-12-18T02:19:51;-2.20;75.40
39045;DHT22;52192;52.002;5.956;2022-12-18T02:28:06;-2.20;75.20
39045;DHT22;52192;52.002;5.956;2022-12-18T02:30:34;-2.30;75.20
39045;DHT22;52192;52.002;5.956;2022-12-18T02:33:02;-2.30;75.20
39045;DHT22;52192;52.002;5.956;2022-12-18T02:35:30;-2.40;75.10
39045;DHT22;52192;52.002;5.956;2022-12-18T02:37:57;-2.40;75.10
39045;DHT22;52192;52.002;5.956;2022-12-18T02:40:25;-2.40;75.10
39045;DHT22;52192;52.002;5.956;2022-12-18T02:42:51;-2.40;75.00
39045;DHT22;52192;52.002;5.956;2022-12-18T02:45:17;-2.50;74.90
39045;DHT22;52192;52.002;5.956;2022-12-18T02:47:47;-2.50;74.80
39045;DHT22;52192;52.002;5.956;2022-12-18T02:50:18;-2.50;74.80
39045;DHT22;52192;52.002;5.956;2022-12-18T02:52:52;-2.50;74.80
39045;DHT22;52192;52.002;5.956;2022-12-18T02:55:47;-2.50;74.70
39045;DHT22;52192;52.002;5.956;2022-12-18T02:58:28;-2.50;74.60
39045;DHT22;52192;52.002;5.956;2022-12-18T03:01:28;-2.60;74.50
39045;DHT22;52192;52.002;5.956;2022-12-18T03:03:55;-2.60;74.50
39045;DHT22;52192;52.002;5.956;2022-12-18T03:06:35;-2.70;74.50
39045;DHT22;52192;52.002;5.956;2022-12-18T03:09:12;-2.60;74.50
39045;DHT22;52192;52.002;5.956;2022-12-18T03:11:42;-2.70;74.40
39045;DHT22;52192;52.002;5.956;2022-12-18T03:14:30;-2.70;74.20
39045;DHT22;52192;52.002;5.956;2022-12-18T03:17:00;-2.70;74.30
39045;DHT22;52192;52.002;5.956;2022-12-18T03:19:28;-2.70;74.30
39045;DHT22;52192;52.002;5.956;2022-12-18T03:21:56;-2.70;74.30
39045;DHT22;52192;52.002;5.956;2022-12-18T03:24:23;-2.80;74.30
39045;DHT22;52192;52.002;5.956;2022-12-18T03:26:53;-2.80;74.20
39045;DHT22;52192;52.002;5.956;2022-12-18T03:29:52;-2.80;74.30
39045;DHT22;52192;52.002;5.956;2022-12-18T03:32:31;-2.80;74.10
39045;DHT22;52192;52.002;5.956;2022-12-18T03:35:01;-2.80;74.10
39045;DHT22;52192;52.002;5.956;2022-12-18T03:37:28;-2.90;74.10
39045;DHT22;52192;52.002;5.956;2022-12-18T03:39:53;-2.90;74.00
39045;DHT22;52192;52.002;5.956;2022-12-18T03:42:45;-2.90;74.00
39045;DHT22;52192;52.002;5.956;2022-12-18T03:45:36;-2.90;73.90
39045;DHT22;52192;52.002;5.956;2022-12-18T03:53:28;-2.90;73.70
39045;DHT22;52192;52.002;5.956;2022-12-18T03:55:58;-2.90;73.80
39045;DHT22;52192;52.002;5.956;2022-12-18T03:58:26;-3.00;73.80
39045;DHT22;52192;52.002;5.956;2022-12-18T04:00:56;-2.90;73.90
39045;DHT22;52192;52.002;5.956;2022-12-18T04:03:23;-2.90;74.00
39045;DHT22;52192;52.002;5.956;2022-12-18T04:05:51;-2.90;74.00
39045;DHT22;52192;52.002;5.956;2022-12-18T04:08:18;-3.00;73.80
39045;DHT22;52192;52.002;5.956;2022-12-18T04:10:45;-3.00;73.80
39045;DHT22;52192;52.002;5.956;2022-12-18T04:13:10;-3.00;73.80
39045;DHT22;52192;52.002;5.956;2022-12-18T04:15:36;-3.00;74.30
39045;DHT22;52192;52.002;5.956;2022-12-18T04:18:03;-3.00;73.70
39045;DHT22;52192;52.002;5.956;2022-12-18T04:20:29;-3.00;73.70
39045;DHT22;52192;52.002;5.956;2022-12-18T04:22:55;-3.00;73.80
39045;DHT22;52192;52.002;5.956;2022-12-18T04:25:21;-3.00;73.80
39045;DHT22;52192;52.002;5.956;2022-12-18T04:27:46;-3.00;73.80
39045;DHT22;52192;52.002;5.956;2022-12-18T04:30:12;-3.00;73.80
39045;DHT22;52192;52.002;5.956;2022-12-18T04:32:38;-3.00;73.80
39045;DHT22;52192;52.002;5.956;2022-12-18T04:35:04;-3.00;73.70
39045;DHT22;52192;52.002;5.956;2022-12-18T04:37:32;-3.00;73.70
39045;DHT22;52192;52.002;5.956;2022-12-18T04:39:57;-3.00;73.80
39045;DHT22;52192;52.002;5.956;2022-12-18T04:42:23;-3.00;73.80
39045;DHT22;52192;52.002;5.956;2022-12-18T04:44:49;-3.10;73.80
39045;DHT22;52192;52.002;5.956;2022-12-18T04:47:14;-3.10;73.80
39045;DHT22;52192;52.002;5.956;2022-12-18T04:49:40;-3.00;73.80
39045;DHT22;52192;52.002;5.956;2022-12-18T04:52:06;-3.10;73.70
39045;DHT22;52192;52.002;5.956;2022-12-18T04:54:32;-3.00;73.70
39045;DHT22;52192;52.002;5.956;2022-12-18T04:56:57;-3.00;73.70
39045;DHT22;52192;52.002;5.956;2022-12-18T04:59:23;-3.00;73.70
39045;DHT22;52192;52.002;5.956;2022-12-18T05:01:49;-3.10;73.70
39045;DHT22;52192;52.002;5.956;2022-12-18T05:04:14;-3.10;73.80
39045;DHT22;52192;52.002;5.956;2022-12-18T05:06:40;-3.10;73.80
39045;DHT22;52192;52.002;5.956;2022-12-18T05:09:06;-3.10;73.80
39045;DHT22;52192;52.002;5.956;2022-12-18T05:11:31;-3.10;73.90
39045;DHT22;52192;52.002;5.956;2022-12-18T05:13:57;-3.10;73.90
39045;DHT22;52192;52.002;5.956;2022-12-18T05:16:23;-3.10;73.90
39045;DHT22;52192;52.002;5.956;2022-12-18T05:18:48;-3.10;73.90
39045;DHT22;52192;52.002;5.956;2022-12-18T05:21:14;-3.10;73.90
39045;DHT22;52192;52.002;5.956;2022-12-18T05:23:40;-3.10;74.00
39045;DHT22;52192;52.002;5.956;2022-12-18T05:26:06;-3.10;74.00
39045;DHT22;52192;52.002;5.956;2022-12-18T05:28:34;-3.10;73.90
39045;DHT22;52192;52.002;5.956;2022-12-18T05:31:01;-3.10;74.00
39045;DHT22;52192;52.002;5.956;2022-12-18T05:33:30;-3.20;73.90
39045;DHT22;52192;52.002;5.956;2022-12-18T05:36:00;-3.10;74.10
39045;DHT22;52192;52.002;5.956;2022-12-18T05:38:27;-3.10;74.10
39045;DHT22;52192;52.002;5.956;2022-12-18T05:40:53;-3.10;74.10
39045;DHT22;52192;52.002;5.956;2022-12-18T05:43:20;-3.10;74.00
39045;DHT22;52192;52.002;5.956;2022-12-18T05:45:48;-3.10;74.10
39045;DHT22;52192;52.002;5.956;2022-12-18T05:48:14;-3.20;74.00
39045;DHT22;52192;52.002;5.956;2022-12-18T05:50:43;-3.20;74.00
39045;DHT22;52192;52.002;5.956;2022-12-18T05:53:11;-3.20;74.00
39045;DHT22;52192;52.002;5.956;2022-12-18T05:55:39;-3.20;74.00
39045;DHT22;52192;52.002;5.956;2022-12-18T05:58:07;-3.20;74.00
39045;DHT22;52192;52.002;5.956;2022-12-18T06:00:34;-3.20;73.90
39045;DHT22;52192;52.002;5.956;2022-12-18T06:03:01;-3.30;73.90
39045;DHT22;52192;52.002;5.956;2022-12-18T06:05:27;-3.30;74.00
39045;DHT22;52192;52.002;5.956;2022-12-18T06:07:53;-3.30;73.90
39045;DHT22;52192;52.002;5.956;2022-12-18T06:10:18;-3.20;73.90
39045;DHT22;52192;52.002;5.956;2022-12-18T06:12:44;-3.30;73.90
39045;DHT22;52192;52.002;5.956;2022-12-18T06:15:10;-3.30;73.90
39045;DHT22;52192;52.002;5.956;2022-12-18T06:17:36;-3.30;73.90
39045;DHT22;52192;52.002;5.956;2022-12-18T06:20:03;-3.30;73.90
39045;DHT22;52192;52.002;5.956;2022-12-18T06:22:31;-3.30;73.90
39045;DHT22;52192;52.002;5.956;2022-12-18T06:24:57;-3.30;73.90
39045;DHT22;52192;52.002;5.956;2022-12-18T06:27:23;-3.30;73.90
39045;DHT22;52192;52.002;5.956;2022-12-18T06:29:48;-3.30;73.90
39045;DHT22;52192;52.002;5.956;2022-12-18T06:32:14;-3.30;73.90
39045;DHT22;52192;52.002;5.956;2022-12-18T06:34:40;-3.30;73.90
39045;DHT22;52192;52.002;5.956;2022-12-18T06:37:06;-3.30;74.00
39045;DHT22;52192;52.002;5.956;2022-12-18T06:39:31;-3.30;74.00
39045;DHT22;52192;52.002;5.956;2022-12-18T06:41:57;-3.30;73.90
39045;DHT22;52192;52.002;5.956;2022-12-18T06:44:22;-3.30;73.90
39045;DHT22;52192;52.002;5.956;2022-12-18T06:46:48;-3.30;74.00
39045;DHT22;52192;52.002;5.956;2022-12-18T06:49:14;-3.40;74.00
39045;DHT22;52192;52.002;5.956;2022-12-18T06:51:41;-3.30;74.00
39045;DHT22;52192;52.002;5.956;2022-12-18T06:54:07;-3.30;74.00
39045;DHT22;52192;52.002;5.956;2022-12-18T06:56:33;-3.30;74.00
39045;DHT22;52192;52.002;5.956;2022-12-18T06:58:59;-3.30;74.00
39045;DHT22;52192;52.002;5.956;2022-12-18T07:01:25;-3.30;74.00
39045;DHT22;52192;52.002;5.956;2022-12-18T07:03:55;-3.30;74.00
39045;DHT22;52192;52.002;5.956;2022-12-18T07:06:25;-3.30;74.00
39045;DHT22;52192;52.002;5.956;2022-12-18T07:08:53;-3.30;74.00
39045;DHT22;52192;52.002;5.956;2022-12-18T07:11:19;-3.30;74.00
39045;DHT22;52192;52.002;5.956;2022-12-18T07:13:46;-3.30;74.00
39045;DHT22;52192;52.002;5.956;2022-12-18T07:16:15;-3.20;74.10
39045;DHT22;52192;52.002;5.956;2022-12-18T07:18:41;-3.20;74.20
39045;DHT22;52192;52.002;5.956;2022-12-18T07:21:08;-3.10;74.20
39045;DHT22;52192;52.002;5.956;2022-12-18T07:23:35;-3.10;74.20
39045;DHT22;52192;52.002;5.956;2022-12-18T07:26:05;-3.10;74.10
39045;DHT22;52192;52.002;5.956;2022-12-18T07:28:32;-3.00;74.80
39045;DHT22;52192;52.002;5.956;2022-12-18T07:31:01;-3.00;74.20
39045;DHT22;52192;52.002;5.956;2022-12-18T07:33:27;-3.00;74.20
39045;DHT22;52192;52.002;5.956;2022-12-18T07:35:53;-2.90;74.30
39045;DHT22;52192;52.002;5.956;2022-12-18T07:38:18;-2.90;74.30
39045;DHT22;52192;52.002;5.956;2022-12-18T07:40:44;-2.90;74.30
39045;DHT22;52192;52.002;5.956;2022-12-18T07:43:10;-2.80;74.30
39045;DHT22;52192;52.002;5.956;2022-12-18T07:45:35;-2.90;74.30
39045;DHT22;52192;52.002;5.956;2022-12-18T07:48:01;-2.90;74.30
39045;DHT22;52192;52.002;5.956;2022-12-18T07:50:27;-2.80;74.40
39045;DHT22;52192;52.002;5.956;2022-12-18T07:52:52;-2.80;74.40
39045;DHT22;52192;52.002;5.956;2022-12-18T07:55:18;-2.80;74.40
39045;DHT22;52192;52.002;5.956;2022-12-18T07:57:44;-2.70;74.50
39045;DHT22;52192;52.002;5.956;2022-12-18T08:00:10;-2.70;74.50
39045;DHT22;52192;52.002;5.956;2022-12-18T08:02:36;-2.70;74.40
39045;DHT22;52192;52.002;5.956;2022-12-18T08:05:01;-2.60;74.50
39045;DHT22;52192;52.002;5.956;2022-12-18T08:07:27;-2.60;74.40
39045;DHT22;52192;52.002;5.956;2022-12-18T08:09:53;-2.50;74.50
39045;DHT22;52192;52.002;5.956;2022-12-18T08:12:19;-2.50;74.50
39045;DHT22;52192;52.002;5.956;2022-12-18T08:14:44;-2.40;74.40
39045;DHT22;52192;52.002;5.956;2022-12-18T08:17:10;-2.40;74.40
39045;DHT22;52192;52.002;5.956;2022-12-18T08:19:36;-2.30;74.40
39045;DHT22;52192;52.002;5.956;2022-12-18T08:22:01;-2.30;74.40
39045;DHT22;52192;52.002;5.956;2022-12-18T08:24:27;-2.30;74.40
39045;DHT22;52192;52.002;5.956;2022-12-18T08:26:53;-2.20;74.40
39045;DHT22;52192;52.002;5.956;2022-12-18T08:29:18;-2.20;74.30
39045;DHT22;52192;52.002;5.956;2022-12-18T08:31:44;-2.10;74.30
39045;DHT22;52192;52.002;5.956;2022-12-18T08:34:10;-2.00;74.30
39045;DHT22;52192;52.002;5.956;2022-12-18T08:36:35;-2.00;74.30
39045;DHT22;52192;52.002;5.956;2022-12-18T08:39:01;-2.00;74.40
39045;DHT22;52192;52.002;5.956;2022-12-18T08:41:27;-1.90;74.30
39045;DHT22;52192;52.002;5.956;2022-12-18T08:43:53;-1.90;74.30
39045;DHT22;52192;52.002;5.956;2022-12-18T08:46:41;-1.80;74.30
39045;DHT22;52192;52.002;5.956;2022-12-18T08:49:08;-1.70;74.30
39045;DHT22;52192;52.002;5.956;2022-12-18T08:51:34;-1.70;74.40
39045;DHT22;52192;52.002;5.956;2022-12-18T08:54:01;-1.60;74.30
39045;DHT22;52192;52.002;5.956;2022-12-18T08:56:27;-1.60;74.40
39045;DHT22;52192;52.002;5.956;2022-12-18T08:58:54;-1.60;74.30
39045;DHT22;52192;52.002;5.956;2022-12-18T09:01:20;-1.50;74.30
39045;DHT22;52192;52.002;5.956;2022-12-18T09:03:46;-1.50;74.30
39045;DHT22;52192;52.002;5.956;2022-12-18T09:06:15;-1.40;74.30
39045;DHT22;52192;52.002;5.956;2022-12-18T09:08:42;-1.40;74.30
39045;DHT22;52192;52.002;5.956;2022-12-18T09:11:20;-1.30;74.40
39045;DHT22;52192;52.002;5.956;2022-12-18T09:13:46;-1.30;74.40
39045;DHT22;52192;52.002;5.956;2022-12-18T09:16:11;-1.20;74.40
39045;DHT22;52192;52.002;5.956;2022-12-18T09:18:37;-1.20;74.40
39045;DHT22;52192;52.002;5.956;2022-12-18T09:21:21;-1.10;74.40
39045;DHT22;52192;52.002;5.956;2022-12-18T09:23:50;-1.00;74.40
39045;DHT22;52192;52.002;5.956;2022-12-18T09:26:17;-1.00;74.40
39045;DHT22;52192;52.002;5.956;2022-12-18T09:28:42;-0.90;74.40
39045;DHT22;52192;52.002;5.956;2022-12-18T09:31:10;-0.80;74.40
39045;DHT22;52192;52.002;5.956;2022-12-18T09:33:36;-0.80;74.30
39045;DHT22;52192;52.002;5.956;2022-12-18T09:36:04;-0.60;74.30
39045;DHT22;52192;52.002;5.956;2022-12-18T09:38:30;-0.60;74.20
39045;DHT22;52192;52.002;5.956;2022-12-18T09:44:16;-0.40;74.10
39045;DHT22;52192;52.002;5.956;2022-12-18T09:49:59;-0.30;74.10
39045;DHT22;52192;52.002;5.956;2022-12-18T09:52:41;-0.30;74.20
39045;DHT22;52192;52.002;5.956;2022-12-18T09:55:32;-0.30;74.10
39045;DHT22;52192;52.002;5.956;2022-12-18T09:58:06;-0.20;74.10
39045;DHT22;52192;52.002;5.956;2022-12-18T10:00:33;-0.20;74.10
39045;DHT22;52192;52.002;5.956;2022-12-18T10:03:11;-0.10;74.10
39045;DHT22;52192;52.002;5.956;2022-12-18T10:09:12;0.00;74.00
39045;DHT22;52192;52.002;5.956;2022-12-18T10:25:02;0.20;74.60
39045;DHT22;52192;52.002;5.956;2022-12-18T10:27:29;0.40;74.00
39045;DHT22;52192;52.002;5.956;2022-12-18T10:29:56;0.40;73.70
39045;DHT22;52192;52.002;5.956;2022-12-18T10:32:28;0.50;73.60
39045;DHT22;52192;52.002;5.956;2022-12-18T10:34:56;0.50;73.50
39045;DHT22;52192;52.002;5.956;2022-12-18T10:37:27;0.60;73.50
39045;DHT22;52192;52.002;5.956;2022-12-18T10:40:14;0.60;73.40
39045;DHT22;52192;52.002;5.956;2022-12-18T10:42:40;0.70;73.20
39045;DHT22;52192;52.002;5.956;2022-12-18T10:45:16;0.70;73.90
39045;DHT22;52192;52.002;5.956;2022-12-18T10:47:47;0.70;73.30
39045;DHT22;52192;52.002;5.956;2022-12-18T10:50:34;0.70;73.20
39045;DHT22;52192;52.002;5.956;2022-12-18T10:53:03;0.70;73.20
39045;DHT22;52192;52.002;5.956;2022-12-18T10:55:37;0.70;73.30
39045;DHT22;52192;52.002;5.956;2022-12-18T10:58:25;0.80;73.40
39045;DHT22;52192;52.002;5.956;2022-12-18T11:06:23;0.80;73.30
39045;DHT22;52192;52.002;5.956;2022-12-18T11:11:25;0.80;73.40
39045;DHT22;52192;52.002;5.956;2022-12-18T11:16:26;0.90;73.20
39045;DHT22;52192;52.002;5.956;2022-12-18T11:18:53;0.90;73.20
39045;DHT22;52192;52.002;5.956;2022-12-18T11:21:18;0.90;73.20
39045;DHT22;52192;52.002;5.956;2022-12-18T11:23:51;1.00;73.20
39045;DHT22;52192;52.002;5.956;2022-12-18T11:26:18;1.00;73.10
39045;DHT22;52192;52.002;5.956;2022-12-18T11:28:50;1.00;73.20
39045;DHT22;52192;52.002;5.956;2022-12-18T11:31:26;1.10;73.20
39045;DHT22;52192;52.002;5.956;2022-12-18T11:36:19;1.20;73.10
39045;DHT22;52192;52.002;5.956;2022-12-18T11:38:47;1.20;73.00
39045;DHT22;52192;52.002;5.956;2022-12-18T11:41:34;1.30;73.00
39045;DHT22;52192;52.002;5.956;2022-12-18T11:47:25;1.30;73.00
39045;DHT22;52192;52.002;5.956;2022-12-18T11:49:56;1.30;72.90
39045;DHT22;52192;52.002;5.956;2022-12-18T11:52:38;1.30;72.80
39045;DHT22;52192;52.002;5.956;2022-12-18T11:55:14;1.40;72.90
39045;DHT22;52192;52.002;5.956;2022-12-18T12:00:20;1.50;72.80
39045;DHT22;52192;52.002;5.956;2022-12-18T12:08:26;1.60;72.60
39045;DHT22;52192;52.002;5.956;2022-12-18T12:16:22;1.70;72.50
39045;DHT22;52192;52.002;5.956;2022-12-18T12:19:00;1.70;72.50
39045;DHT22;52192;52.002;5.956;2022-12-18T12:21:42;1.70;72.40
39045;DHT22;52192;52.002;5.956;2022-12-18T12:27:08;1.80;72.40
39045;DHT22;52192;52.002;5.956;2022-12-18T12:40:23;1.80;71.90
39045;DHT22;52192;52.002;5.956;2022-12-18T12:42:54;1.80;72.00
39045;DHT22;52192;52.002;5.956;2022-12-18T12:45:50;1.80;72.00
39045;DHT22;52192;52.002;5.956;2022-12-18T12:48:55;1.80;72.00
39045;DHT22;52192;52.002;5.956;2022-12-18T12:51:32;1.90;71.80
39045;DHT22;52192;52.002;5.956;2022-12-18T12:54:00;1.80;71.90
39045;DHT22;52192;52.002;5.956;2022-12-18T12:56:43;1.80;71.80
39045;DHT22;52192;52.002;5.956;2022-12-18T13:04:58;1.90;71.70
39045;DHT22;52192;52.002;5.956;2022-12-18T13:07:32;1.90;71.70
39045;DHT22;52192;52.002;5.956;2022-12-18T13:13:01;1.90;71.70
39045;DHT22;52192;52.002;5.956;2022-12-18T13:15:47;2.00;71.70
39045;DHT22;52192;52.002;5.956;2022-12-18T13:18:24;2.00;71.60
39045;DHT22;52192;52.002;5.956;2022-12-18T13:21:01;2.00;71.60
39045;DHT22;52192;52.002;5.956;2022-12-18T13:23:36;2.00;71.50
39045;DHT22;52192;52.002;5.956;2022-12-18T13:31:00;2.00;71.20
39045;DHT22;52192;52.002;5.956;2022-12-18T13:43:53;2.00;71.10
39045;DHT22;52192;52.002;5.956;2022-12-18T13:46:29;2.00;71.10
39045;DHT22;52192;52.002;5.956;2022-12-18T13:49:05;2.00;71.20
39045;DHT22;52192;52.002;5.956;2022-12-18T13:51:33;2.10;71.10
39045;DHT22;52192;52.002;5.956;2022-12-18T13:54:39;2.00;71.00
39045;DHT22;52192;52.002;5.956;2022-12-18T13:59:50;2.10;71.00
39045;DHT22;52192;52.002;5.956;2022-12-18T14:02:22;2.10;71.00
39045;DHT22;52192;52.002;5.956;2022-12-18T14:04:48;2.00;70.90
39045;DHT22;52192;52.002;5.956;2022-12-18T14:07:26;2.10;71.00
39045;DHT22;52192;52.002;5.956;2022-12-18T14:09:55;2.10;71.00
39045;DHT22;52192;52.002;5.956;2022-12-18T14:12:33;2.00;70.90
39045;DHT22;52192;52.002;5.956;2022-12-18T14:20:34;2.10;70.80
39045;DHT22;52192;52.002;5.956;2022-12-18T14:23:00;2.00;70.70
39045;DHT22;52192;52.002;5.956;2022-12-18T14:25:27;2.00;70.60
39045;DHT22;52192;52.002;5.956;2022-12-18T14:28:08;2.10;70.70
39045;DHT22;52192;52.002;5.956;2022-12-18T14:30:44;2.10;70.70
39045;DHT22;52192;52.002;5.956;2022-12-18T14:33:15;2.10;70.60
39045;DHT22;52192;52.002;5.956;2022-12-18T14:35:51;2.10;70.60
39045;DHT22;52192;52.002;5.956;2022-12-18T14:38:37;2.10;70.50
39045;DHT22;52192;52.002;5.956;2022-12-18T14:41:10;2.10;70.50
39045;DHT22;52192;52.002;5.956;2022-12-18T14:43:38;2.10;70.50
39045;DHT22;52192;52.002;5.956;2022-12-18T14:46:33;2.10;70.50
39045;DHT22;52192;52.002;5.956;2022-12-18T14:51:52;2.10;70.60
39045;DHT22;52192;52.002;5.956;2022-12-18T14:54:19;2.10;70.60
39045;DHT22;52192;52.002;5.956;2022-12-18T14:56:51;2.10;70.60
39045;DHT22;52192;52.002;5.956;2022-12-18T14:59:21;2.10;70.60
39045;DHT22;52192;52.002;5.956;2022-12-18T15:04:27;2.10;70.50
39045;DHT22;52192;52.002;5.956;2022-12-18T15:07:18;2.10;70.60
39045;DHT22;52192;52.002;5.956;2022-12-18T15:10:18;2.10;70.50
39045;DHT22;52192;52.002;5.956;2022-12-18T15:18:18;2.00;70.70
39045;DHT22;52192;52.002;5.956;2022-12-18T15:20:56;2.00;70.70
39045;DHT22;52192;52.002;5.956;2022-12-18T15:26:09;2.00;70.70
39045;DHT22;52192;52.002;5.956;2022-12-18T15:34:28;2.00;70.30
39045;DHT22;52192;52.002;5.956;2022-12-18T15:36:29;2.00;70.50
39045;DHT22;52192;52.002;5.956;2022-12-18T15:38:56;2.00;70.30
39045;DHT22;52192;52.002;5.956;2022-12-18T15:41:23;2.00;70.30
39045;DHT22;52192;52.002;5.956;2022-12-18T15:43:50;2.10;70.40
39045;DHT22;52192;52.002;5.956;2022-12-18T15:46:21;2.10;70.20
39045;DHT22;52192;52.002;5.956;2022-12-18T15:48:55;2.10;70.10
39045;DHT22;52192;52.002;5.956;2022-12-18T15:51:35;2.10;70.10
39045;DHT22;52192;52.002;5.956;2022-12-18T15:54:05;2.10;69.90
39045;DHT22;52192;52.002;5.956;2022-12-18T15:56:32;2.00;69.90
39045;DHT22;52192;52.002;5.956;2022-12-18T15:59:18;2.00;69.90
39045;DHT22;52192;52.002;5.956;2022-12-18T16:01:46;2.00;69.70
39045;DHT22;52192;52.002;5.956;2022-12-18T16:04:14;2.00;69.40
39045;DHT22;52192;52.002;5.956;2022-12-18T16:06:40;2.00;69.50
39045;DHT22;52192;52.002;5.956;2022-12-18T16:09:07;2.00;69.60
39045;DHT22;52192;52.002;5.956;2022-12-18T16:11:35;2.10;69.70
39045;DHT22;52192;52.002;5.956;2022-12-18T16:14:25;2.10;69.50
39045;DHT22;52192;52.002;5.956;2022-12-18T16:17:02;2.00;69.50
39045;DHT22;52192;52.002;5.956;2022-12-18T16:19:28;2.00;69.60
39045;DHT22;52192;52.002;5.956;2022-12-18T16:21:55;2.00;69.60
39045;DHT22;52192;52.002;5.956;2022-12-18T16:24:27;2.00;69.60
39045;DHT22;52192;52.002;5.956;2022-12-18T16:26:56;2.00;69.80
39045;DHT22;52192;52.002;5.956;2022-12-18T16:29:23;2.00;69.70
39045;DHT22;52192;52.002;5.956;2022-12-18T16:31:53;2.00;69.70
39045;DHT22;52192;52.002;5.956;2022-12-18T16:34:22;2.00;69.80
39045;DHT22;52192;52.002;5.956;2022-12-18T16:36:49;2.00;69.70
39045;DHT22;52192;52.002;5.956;2022-12-18T16:39:16;2.00;69.60
39045;DHT22;52192;52.002;5.956;2022-12-18T16:41:42;2.00;69.60
39045;DHT22;52192;52.002;5.956;2022-12-18T16:44:08;1.90;69.60
39045;DHT22;52192;52.002;5.956;2022-12-18T16:46:34;2.00;69.80
39045;DHT22;52192;52.002;5.956;2022-12-18T16:49:00;2.00;69.80
39045;DHT22;52192;52.002;5.956;2022-12-18T16:51:29;2.00;69.70
39045;DHT22;52192;52.002;5.956;2022-12-18T16:53:55;2.00;69.50
39045;DHT22;52192;52.002;5.956;2022-12-18T16:56:21;2.00;69.60
39045;DHT22;52192;52.002;5.956;2022-12-18T16:58:56;1.90;69.60
39045;DHT22;52192;52.002;5.956;2022-12-18T17:01:23;2.00;69.60
39045;DHT22;52192;52.002;5.956;2022-12-18T17:03:53;1.90;69.80
39045;DHT22;52192;52.002;5.956;2022-12-18T17:06:20;1.90;69.60
39045;DHT22;52192;52.002;5.956;2022-12-18T17:08:46;1.90;70.20
39045;DHT22;52192;52.002;5.956;2022-12-18T17:11:12;1.90;69.50
39045;DHT22;52192;52.002;5.956;2022-12-18T17:13:38;1.90;69.50
39045;DHT22;52192;52.002;5.956;2022-12-18T17:16:05;1.90;69.60
39045;DHT22;52192;52.002;5.956;2022-12-18T17:18:32;1.90;69.40
39045;DHT22;52192;52.002;5.956;2022-12-18T17:21:02;1.90;69.40
39045;DHT22;52192;52.002;5.956;2022-12-18T17:23:28;1.90;69.40
39045;DHT22;52192;52.002;5.956;2022-12-18T17:25:55;1.90;69.50
39045;DHT22;52192;52.002;5.956;2022-12-18T17:28:25;1.90;69.40
39045;DHT22;52192;52.002;5.956;2022-12-18T17:30:52;1.90;69.50
39045;DHT22;52192;52.002;5.956;2022-12-18T17:33:18;1.90;69.50
39045;DHT22;52192;52.002;5.956;2022-12-18T17:35:44;1.90;69.50
39045;DHT22;52192;52.002;5.956;2022-12-18T17:38:10;1.90;69.40
39045;DHT22;52192;52.002;5.956;2022-12-18T17:40:36;1.90;69.30
39045;DHT22;52192;52.002;5.956;2022-12-18T17:43:02;1.90;69.30
39045;DHT22;52192;52.002;5.956;2022-12-18T17:45:27;1.90;69.10
39045;DHT22;52192;52.002;5.956;2022-12-18T17:47:53;1.90;69.20
39045;DHT22;52192;52.002;5.956;2022-12-18T17:50:19;1.90;69.20
39045;DHT22;52192;52.002;5.956;2022-12-18T17:52:45;1.90;69.20
39045;DHT22;52192;52.002;5.956;2022-12-18T17:55:11;1.90;69.30
39045;DHT22;52192;52.002;5.956;2022-12-18T17:57:36;1.90;69.40
39045;DHT22;52192;52.002;5.956;2022-12-18T18:00:05;1.90;69.30
39045;DHT22;52192;52.002;5.956;2022-12-18T18:02:31;1.90;69.40
39045;DHT22;52192;52.002;5.956;2022-12-18T18:04:56;2.00;69.40